Time;durP1;ratioP1;P1;durP2;ratioP2;P2;SDS_P1;SDS_P2;PMS_P1;PMS_P2;Temp;Humidity;BMP_temperature;BMP_pressure;BME280_temperature;BME280_humidity;BME280_pressure;Samples;Min_cycle;Max_cycle;Signal;HPM_P1;HPM_P2
2021/12/24 00:00:40;;;;;;;78.93;27.20;;;;;;;-16.83;100.00;101756.28;1716896;83;21035;-67
2021/12/24 00:03:08;;;;;;;74.00;26.27;;;;;;;-16.70;100.00;101759.75;1709927;83;21054;-67
2021/12/24 00:05:36;;;;;;;75.53;26.70;;;;;;;-16.53;100.00;101761.20;1701309;84;21003;-68
2021/12/24 00:08:04;;;;;;;83.30;29.73;;;;;;;-16.52;100.00;101755.19;1703486;84;21037;-68
2021/12/24 00:10:32;;;;;;;77.40;28.00;;;;;;;-16.35;100.00;101756.59;1707164;84;21505;-67
2021/12/24 00:13:05;;;;;;;79.83;28.67;;;;;;;-16.21;100.00;101749.98;1700918;84;21035;-68
2021/12/24 00:18:17;;;;;;;75.13;26.07;;;;;;;-16.23;100.00;101746.52;1703947;84;21090;-68
2021/12/24 00:21:40;;;;;;;68.20;24.10;;;;;;;-16.08;100.00;101744.83;1704529;84;21589;-68
2021/12/24 00:36:35;;;;;;;60.83;19.23;;;;;;;-15.43;100.00;101720.05;1706747;84;21022;-68
2021/12/24 00:39:03;;;;;;;81.70;25.97;;;;;;;-15.44;100.00;101724.50;1710753;84;21084;-68
2021/12/24 00:41:30;;;;;;;68.53;26.80;;;;;;;-15.39;100.00;101724.10;1706521;84;21046;-68
2021/12/24 00:43:57;;;;;;;76.70;26.83;;;;;;;-15.41;100.00;101712.01;1707361;84;21150;-68
2021/12/24 00:46:24;;;;;;;76.50;25.53;;;;;;;-15.36;100.00;101712.02;1708236;84;21065;-68
2021/12/24 00:48:55;;;;;;;74.97;27.40;;;;;;;-15.37;100.00;101713.98;1706496;84;21038;-67
2021/12/24 00:51:32;;;;;;;78.27;25.70;;;;;;;-15.30;100.00;101704.62;1703856;84;21077;-68
2021/12/24 00:56:19;;;;;;;73.17;25.60;;;;;;;-15.33;100.00;101699.05;1703983;84;20998;-68
2021/12/24 00:58:47;;;;;;;67.77;24.73;;;;;;;-15.35;100.00;101696.45;1704240;84;21094;-67
2021/12/24 01:01:16;;;;;;;62.90;22.67;;;;;;;-15.23;100.00;101690.77;1706553;84;21137;-68
2021/12/24 01:03:43;;;;;;;67.20;23.87;;;;;;;-15.10;100.00;101693.45;1706865;84;21132;-68
2021/12/24 01:06:11;;;;;;;55.73;21.63;;;;;;;-14.95;100.00;101685.13;1705569;84;21475;-67
2021/12/24 01:08:38;;;;;;;59.43;23.03;;;;;;;-14.78;100.00;101684.83;1706179;84;21553;-67
2021/12/24 01:11:09;;;;;;;63.33;22.17;;;;;;;-14.65;100.00;101677.11;1680777;84;21034;-68
2021/12/24 01:13:36;;;;;;;59.10;24.13;;;;;;;-14.60;100.00;101678.31;1706300;84;21502;-68
2021/12/24 01:16:18;;;;;;;74.33;25.83;;;;;;;-14.45;100.00;101681.03;1701764;83;21030;-67
2021/12/24 01:18:45;;;;;;;59.43;22.27;;;;;;;-14.34;100.00;101678.63;1708046;84;21033;-68
2021/12/24 01:21:33;;;;;;;67.53;25.20;;;;;;;-14.27;100.00;101671.31;1704902;83;21043;-68
2021/12/24 01:23:51;;;;;;;73.63;24.33;;;;;;;-14.27;100.00;101666.37;1705319;84;21126;-68
2021/12/24 01:26:21;;;;;;;68.07;24.47;;;;;;;-14.29;100.00;101662.92;1697073;83;21020;-68
2021/12/24 01:45:01;;;;;;;49.30;20.27;;;;;;;-13.80;100.00;101626.91;1708191;83;21042;-68
2021/12/24 01:47:27;;;;;;;48.37;18.90;;;;;;;-13.74;100.00;101622.78;1707158;84;21030;-67
2021/12/24 01:49:54;;;;;;;48.00;17.83;;;;;;;-13.68;100.00;101621.98;1701989;84;21505;-67
2021/12/24 01:52:24;;;;;;;52.03;20.30;;;;;;;-13.56;100.00;101612.95;1712276;83;21005;-67
2021/12/24 01:54:52;;;;;;;58.37;20.10;;;;;;;-13.41;100.00;101609.83;1705072;83;21054;-67
2021/12/24 01:57:19;;;;;;;52.67;20.77;;;;;;;-13.36;100.00;101598.25;1706861;84;21121;-67
2021/12/24 01:59:46;;;;;;;67.33;22.80;;;;;;;-13.28;100.00;101595.39;1706079;84;21070;-67
2021/12/24 02:02:12;;;;;;;60.03;22.90;;;;;;;-13.26;100.00;101597.60;1705368;84;21046;-67
2021/12/24 02:04:40;;;;;;;59.63;22.43;;;;;;;-13.21;100.00;101593.45;1704312;84;21045;-67
2021/12/24 02:07:07;;;;;;;61.87;24.50;;;;;;;-13.14;100.00;101581.11;1706359;84;21034;-68
2021/12/24 02:09:34;;;;;;;64.83;23.20;;;;;;;-13.08;100.00;101580.28;1706524;84;21065;-67
2021/12/24 02:12:05;;;;;;;67.27;23.63;;;;;;;-13.03;100.00;101574.42;1706677;83;21064;-67
2021/12/24 02:14:36;;;;;;;51.80;20.10;;;;;;;-12.97;100.00;101574.84;1703217;83;21083;-67
2021/12/24 02:30:44;;;;;;;55.43;19.40;;;;;;;-12.33;100.00;101558.40;1702258;84;21046;-67
2021/12/24 02:33:13;;;;;;;58.87;22.00;;;;;;;-12.19;100.00;101544.41;1701623;84;21046;-67
2021/12/24 02:35:41;;;;;;;52.47;18.57;;;;;;;-12.13;100.00;101546.05;1706358;83;21022;-68
2021/12/24 02:38:08;;;;;;;51.33;20.37;;;;;;;-12.07;100.00;101544.34;1707070;84;21053;-67
2021/12/24 02:40:37;;;;;;;57.67;21.03;;;;;;;-12.03;100.00;101535.09;1705077;84;21144;-67
2021/12/24 02:43:09;;;;;;;58.50;20.93;;;;;;;-12.00;100.00;101537.39;1706564;84;21520;-68
2021/12/24 02:45:35;;;;;;;46.17;19.33;;;;;;;-11.94;100.00;101531.57;1704600;84;21097;-68
2021/12/24 02:56:06;;;;;;;45.80;18.13;;;;;;;-11.43;100.00;101501.49;1704783;84;21076;-68
2021/12/24 02:58:46;;;;;;;46.23;17.53;;;;;;;-11.34;100.00;101504.16;1706402;83;21546;-68
2021/12/24 03:01:17;;;;;;;41.20;15.93;;;;;;;-11.22;100.00;101490.77;1716050;82;21032;-68
2021/12/24 03:03:48;;;;;;;39.67;16.03;;;;;;;-11.17;100.00;101486.55;1711836;84;21541;-67
2021/12/24 03:06:16;;;;;;;40.57;15.13;;;;;;;-11.09;100.00;101480.41;1709174;84;21659;-67
2021/12/24 03:08:43;;;;;;;38.67;15.60;;;;;;;-11.02;100.00;101475.79;1706960;84;21568;-68
2021/12/24 03:11:12;;;;;;;46.07;16.80;;;;;;;-10.98;100.00;101464.02;1707391;84;21010;-68
2021/12/24 03:13:41;;;;;;;37.63;15.10;;;;;;;-10.97;100.00;101467.80;1707837;83;21010;-68
2021/12/24 03:16:08;;;;;;;41.80;16.47;;;;;;;-11.04;100.00;101455.80;1702869;83;21078;-68
2021/12/24 03:18:38;;;;;;;35.70;14.87;;;;;;;-11.10;100.00;101456.30;1705775;84;21033;-67
2021/12/24 03:21:17;;;;;;;38.03;13.80;;;;;;;-11.12;100.00;101455.73;1712445;83;21586;-67
2021/12/24 03:24:33;;;;;;;39.07;14.97;;;;;;;-11.19;100.00;101452.41;1706133;84;21038;-67
2021/12/24 03:26:15;;;;;;;39.07;14.60;;;;;;;-11.20;100.00;101447.83;1705842;84;21617;-67
2021/12/24 03:28:43;;;;;;;34.70;13.60;;;;;;;-11.24;100.00;101447.17;1713011;84;21595;-67
2021/12/24 03:31:11;;;;;;;34.37;14.10;;;;;;;-11.27;100.00;101444.52;1706504;84;21102;-68
2021/12/24 03:33:39;;;;;;;32.87;13.63;;;;;;;-11.27;100.00;101435.83;1704340;84;21019;-68
2021/12/24 03:36:08;;;;;;;36.50;14.07;;;;;;;-11.29;100.00;101433.63;1696873;84;21070;-67
2021/12/24 03:38:37;;;;;;;32.10;12.50;;;;;;;-11.28;100.00;101424.15;1705550;84;21101;-67
2021/12/24 03:41:05;;;;;;;33.23;12.13;;;;;;;-11.30;100.00;101425.30;1704986;83;21579;-68
2021/12/24 03:43:33;;;;;;;29.90;11.97;;;;;;;-11.28;100.00;101420.42;1707781;84;21053;-68
2021/12/24 03:46:07;;;;;;;28.87;12.07;;;;;;;-11.30;100.00;101422.81;1709126;84;21026;-68
2021/12/24 03:48:46;;;;;;;35.07;14.47;;;;;;;-11.28;100.00;101410.48;1705450;84;21523;-68
2021/12/24 03:56:30;;;;;;;29.70;12.27;;;;;;;-11.29;100.00;101408.78;1708956;83;21065;-67
2021/12/24 03:58:59;;;;;;;26.67;10.57;;;;;;;-11.31;100.00;101409.92;1705262;84;21569;-68
2021/12/24 04:01:44;;;;;;;26.90;11.33;;;;;;;-11.32;100.00;101408.19;1703895;84;21031;-68
2021/12/24 04:04:21;;;;;;;28.83;11.53;;;;;;;-11.32;100.00;101397.40;1638417;87;21036;-68
2021/12/24 04:07:06;;;;;;;;;;;;;;;-11.33;100.00;101398.19;1677698;84;21050;-67
2021/12/24 04:09:48;;;;;;;27.20;9.93;;;;;;;-11.37;100.00;101391.32;1693596;84;20130;-67
2021/12/24 04:12:16;;;;;;;35.67;11.67;;;;;;;-11.40;100.00;101391.12;1689330;84;21041;-67
2021/12/24 04:14:43;;;;;;;27.20;10.93;;;;;;;-11.40;100.00;101393.61;1707583;84;21026;-68
2021/12/24 04:17:09;;;;;;;33.80;13.10;;;;;;;-11.37;100.00;101392.56;1705544;83;21069;-67
2021/12/24 04:24:52;;;;;;;35.00;14.23;;;;;;;-11.12;100.00;101386.98;1706099;83;21085;-67
2021/12/24 04:27:24;;;;;;;41.70;15.33;;;;;;;-11.07;100.00;101378.94;1707881;84;21525;-67
2021/12/24 04:30:02;;;;;;;33.10;12.60;;;;;;;-11.03;100.00;101380.83;1706784;84;21085;-67
2021/12/24 04:32:26;;;;;;;28.77;11.37;;;;;;;-10.99;100.00;101382.72;1701563;83;21123;-67
2021/12/24 04:34:52;;;;;;;29.37;11.77;;;;;;;-11.00;100.00;101376.89;1702785;84;21007;-68
2021/12/24 04:51:26;;;;;;;25.80;10.57;;;;;;;-11.00;100.00;101349.94;1706619;84;21081;-67
2021/12/24 05:04:47;;;;;;;17.30;7.63;;;;;;;-10.90;100.00;101342.22;1706451;84;21058;-67
2021/12/24 05:07:24;;;;;;;19.50;8.67;;;;;;;-10.91;100.00;101342.98;1709521;83;21096;-67
2021/12/24 05:09:40;;;;;;;18.50;7.63;;;;;;;-10.86;100.00;101340.38;1712911;83;21085;-67
2021/12/24 05:12:09;;;;;;;17.70;7.37;;;;;;;-10.81;100.00;101342.71;1712693;83;21518;-68
2021/12/24 05:14:35;;;;;;;18.73;7.70;;;;;;;-10.80;100.00;101344.45;1708529;83;21541;-67
2021/12/24 05:22:52;;;;;;;16.67;7.63;;;;;;;-10.71;100.00;101338.72;1696273;83;21026;-67
2021/12/24 05:25:19;;;;;;;17.57;7.93;;;;;;;-10.67;100.00;101343.48;1709770;83;21158;-67
2021/12/24 05:27:46;;;;;;;17.57;7.73;;;;;;;-10.67;100.00;101339.75;1711103;83;21093;-67
2021/12/24 05:30:14;;;;;;;17.80;8.10;;;;;;;-10.63;100.00;101333.32;1659604;85;21094;-67
2021/12/24 05:32:41;;;;;;;19.90;7.87;;;;;;;-10.59;100.00;101331.08;1654001;85;21044;-67
2021/12/24 05:35:09;;;;;;;21.83;8.03;;;;;;;-10.52;100.00;101339.72;1710195;83;21077;-67
2021/12/24 05:37:37;;;;;;;19.20;9.23;;;;;;;-10.46;100.00;101330.13;1683723;82;21062;-68
2021/12/24 05:40:06;;;;;;;22.30;8.57;;;;;;;-10.38;100.00;101333.01;1692743;83;21097;-67
2021/12/24 05:42:34;;;;;;;20.40;8.57;;;;;;;-10.36;100.00;101331.09;1702801;83;21609;-67
2021/12/24 05:45:05;;;;;;;17.10;8.30;;;;;;;-10.28;100.00;101333.58;1710981;82;21004;-67
2021/12/24 05:47:51;;;;;;;17.83;7.30;;;;;;;-10.14;100.00;101324.32;1660389;86;21134;-67
2021/12/24 05:50:18;;;;;;;17.10;8.90;;;;;;;-10.14;100.00;101318.09;1672950;85;21666;-68
2021/12/24 05:52:45;;;;;;;17.93;8.07;;;;;;;-10.12;100.00;101321.52;1665061;85;21015;-68
2021/12/24 05:55:14;;;;;;;21.60;8.57;;;;;;;-10.07;100.00;101315.56;1662950;85;21046;-67
2021/12/24 05:57:41;;;;;;;15.83;7.60;;;;;;;-10.08;100.00;101319.66;1671316;85;21583;-67
2021/12/24 06:00:11;;;;;;;18.20;8.00;;;;;;;-10.12;100.00;101315.70;1676548;85;21086;-67
2021/12/24 06:02:41;;;;;;;19.70;7.37;;;;;;;-10.16;100.00;101308.84;1677156;84;21015;-67
2021/12/24 06:05:09;;;;;;;16.53;7.60;;;;;;;-10.23;100.00;101305.58;1668731;85;21047;-67
2021/12/24 06:07:36;;;;;;;17.83;7.00;;;;;;;-10.24;100.00;101305.94;1700857;84;21574;-67
2021/12/24 06:10:05;;;;;;;18.50;7.60;;;;;;;-10.24;100.00;101305.09;1684519;84;21123;-68
2021/12/24 06:12:34;;;;;;;17.70;7.47;;;;;;;-10.23;100.00;101306.83;1694191;83;20971;-67
2021/12/24 06:15:05;;;;;;;18.20;7.63;;;;;;;-10.15;100.00;101306.44;1691919;84;21056;-67
2021/12/24 06:17:30;;;;;;;13.60;6.87;;;;;;;-10.07;100.00;101294.40;1712546;83;21056;-67
2021/12/24 06:19:58;;;;;;;17.27;7.67;;;;;;;-10.02;100.00;101294.23;1687585;84;21047;-67
2021/12/24 06:22:24;;;;;;;14.63;7.53;;;;;;;-10.00;100.00;101287.70;1686172;84;21030;-67
2021/12/24 06:24:51;;;;;;;18.47;7.90;;;;;;;-9.94;100.00;101281.78;1701227;83;21121;-67
2021/12/24 06:27:20;;;;;;;17.20;6.57;;;;;;;-9.87;100.00;101278.84;1672101;84;21027;-68
2021/12/24 06:29:47;;;;;;;15.40;7.07;;;;;;;-9.80;100.00;101268.79;1661993;84;21502;-67
2021/12/24 06:32:13;;;;;;;17.17;7.33;;;;;;;-9.77;100.00;101273.06;1663954;86;21026;-67
2021/12/24 06:34:42;;;;;;;17.20;7.50;;;;;;;-9.71;100.00;101271.76;1669245;85;21043;-67
2021/12/24 06:37:09;;;;;;;18.17;7.37;;;;;;;-9.61;100.00;101278.06;1674417;84;21041;-67
2021/12/24 06:39:36;;;;;;;15.53;6.73;;;;;;;-9.59;100.00;101281.48;1694685;84;20979;-67
2021/12/24 06:42:04;;;;;;;21.27;7.40;;;;;;;-9.49;100.00;101288.64;1686829;84;21022;-68
2021/12/24 06:44:32;;;;;;;16.63;6.80;;;;;;;-9.42;100.00;101269.00;1680578;84;21611;-67
2021/12/24 06:47:00;;;;;;;15.47;6.63;;;;;;;-9.45;100.00;101254.73;1685175;84;21058;-67
2021/12/24 06:49:27;;;;;;;14.90;6.20;;;;;;;-9.45;100.00;101244.75;1692115;83;21616;-67
2021/12/24 06:51:53;;;;;;;16.03;7.43;;;;;;;-9.47;100.00;101235.11;1686555;84;21103;-68
2021/12/24 06:54:20;;;;;;;13.53;7.00;;;;;;;-9.48;100.00;101231.77;1688945;84;21529;-68
2021/12/24 06:56:49;;;;;;;17.80;7.23;;;;;;;-9.45;100.00;101235.19;1688265;82;21095;-67
2021/12/24 06:59:17;;;;;;;14.90;6.60;;;;;;;-9.42;100.00;101233.70;1660930;84;21107;-68
2021/12/24 07:01:59;;;;;;;14.03;6.47;;;;;;;-9.36;100.00;101221.53;1696615;83;21104;-67
2021/12/24 07:04:24;;;;;;;20.03;7.90;;;;;;;-9.34;100.00;101199.18;1679906;82;21033;-68
2021/12/24 07:06:52;;;;;;;15.80;7.23;;;;;;;-9.23;100.00;101199.68;1679532;83;21016;-67
2021/12/24 07:09:19;;;;;;;15.80;7.50;;;;;;;-9.07;100.00;101195.87;1701913;83;21439;-67
2021/12/24 07:11:48;;;;;;;18.27;7.47;;;;;;;-8.95;100.00;101195.19;1714164;82;21533;-67
2021/12/24 07:14:15;;;;;;;16.73;6.87;;;;;;;-8.71;100.00;101179.23;1710744;83;21474;-68
2021/12/24 07:16:42;;;;;;;18.50;7.73;;;;;;;-8.49;100.00;101176.45;1704492;83;21013;-67
2021/12/24 07:19:09;;;;;;;18.20;7.67;;;;;;;-8.34;100.00;101184.55;1705530;83;21486;-68
2021/12/24 07:21:38;;;;;;;14.80;7.27;;;;;;;-8.24;100.00;101187.06;1707150;83;21022;-67
2021/12/24 07:24:06;;;;;;;17.07;7.50;;;;;;;-8.11;100.00;101184.31;1714136;82;21531;-68
2021/12/24 07:26:33;;;;;;;15.00;7.77;;;;;;;-8.02;100.00;101182.59;1711661;83;21029;-67
2021/12/24 07:29:01;;;;;;;28.90;10.90;;;;;;;-7.92;100.00;101182.18;1705634;83;21112;-67
2021/12/24 07:31:28;;;;;;;19.67;9.53;;;;;;;-7.88;100.00;101165.67;1713077;83;20958;-67
2021/12/24 07:33:55;;;;;;;20.23;9.00;;;;;;;-7.86;100.00;101147.85;1717343;82;21060;-68
2021/12/24 07:36:21;;;;;;;21.60;9.27;;;;;;;-7.90;100.00;101149.36;1729889;82;21555;-67
2021/12/24 07:38:48;;;;;;;17.03;8.20;;;;;;;-7.79;100.00;101143.55;1723408;82;21072;-67
2021/12/24 07:41:16;;;;;;;23.93;9.47;;;;;;;-7.72;100.00;101144.67;1736368;82;21575;-67
2021/12/24 07:43:43;;;;;;;17.17;8.43;;;;;;;-7.60;100.00;101141.78;1727246;83;21021;-67
2021/12/24 07:46:10;;;;;;;16.13;7.47;;;;;;;-7.61;100.00;101117.19;1723989;82;21545;-67
2021/12/24 07:48:44;;;;;;;18.00;7.93;;;;;;;-7.47;100.00;101117.73;1672424;84;21060;-68
2021/12/24 07:53:31;;;;;;;18.80;8.67;;;;;;;-7.36;100.00;101124.39;1656650;85;21035;-67
2021/12/24 07:55:58;;;;;;;23.80;9.13;;;;;;;-7.24;100.00;101122.35;1662753;85;21082;-67
2021/12/24 07:58:25;;;;;;;15.83;7.83;;;;;;;-7.10;100.00;101115.37;1697641;84;21088;-67
2021/12/24 08:00:52;;;;;;;16.37;7.40;;;;;;;-6.98;100.00;101108.72;1696258;84;21006;-67
2021/12/24 08:03:19;;;;;;;14.67;7.10;;;;;;;-6.91;100.00;101104.41;1694065;83;21211;-67
2021/12/24 08:05:49;;;;;;;16.27;7.77;;;;;;;-6.83;100.00;101108.05;1696302;84;21534;-67
2021/12/24 08:08:15;;;;;;;13.13;6.97;;;;;;;-6.72;100.00;101093.40;1688639;84;21051;-67
2021/12/24 08:10:42;;;;;;;13.87;6.93;;;;;;;-6.65;100.00;101093.68;1693436;84;21059;-67
2021/12/24 08:13:10;;;;;;;14.23;7.13;;;;;;;-6.66;100.00;101088.61;1700490;84;21011;-67
2021/12/24 08:15:37;;;;;;;14.53;7.00;;;;;;;-6.47;100.00;101080.07;1700012;84;21030;-68
2021/12/24 08:18:04;;;;;;;13.73;6.50;;;;;;;-6.40;100.00;101074.48;1685644;84;21120;-67
2021/12/24 08:20:31;;;;;;;18.47;9.20;;;;;;;-6.30;100.00;101072.74;1683253;84;21058;-67
2021/12/24 08:22:58;;;;;;;19.77;8.47;;;;;;;-6.21;100.00;101055.90;1680320;84;21864;-67
2021/12/24 08:25:27;;;;;;;15.77;7.60;;;;;;;-6.11;100.00;101047.03;1697532;83;21081;-68
2021/12/24 08:27:54;;;;;;;15.53;7.77;;;;;;;-6.07;100.00;101026.28;1687574;84;21542;-68
2021/12/24 08:30:21;;;;;;;15.70;7.70;;;;;;;-6.17;100.00;101025.12;1681005;83;21083;-67
2021/12/24 08:32:50;;;;;;;18.83;7.83;;;;;;;-6.11;100.00;101034.50;1689159;83;21664;-68
2021/12/24 08:35:24;;;;;;;17.53;7.37;;;;;;;-6.10;100.00;101027.05;1688088;84;21020;-68
2021/12/24 08:37:49;;;;;;;14.93;7.73;;;;;;;-6.05;100.00;101014.24;1691789;84;21069;-67
2021/12/24 08:40:17;;;;;;;15.03;7.87;;;;;;;-6.04;100.00;101005.09;1681828;84;21035;-68
2021/12/24 08:42:43;;;;;;;24.73;10.33;;;;;;;-6.01;100.00;100998.06;1694138;84;21027;-67
2021/12/24 08:45:13;;;;;;;16.03;7.60;;;;;;;-5.96;100.00;100994.91;1669259;85;21062;-67
2021/12/24 08:47:41;;;;;;;18.60;9.03;;;;;;;-6.05;100.00;100977.91;1660912;86;21075;-67
2021/12/24 08:50:11;;;;;;;15.83;8.03;;;;;;;-6.03;100.00;100974.20;1667409;85;22222;-68
2021/12/24 08:52:43;;;;;;;14.90;7.47;;;;;;;-5.97;100.00;100963.10;1659954;85;21091;-67
2021/12/24 08:55:10;;;;;;;17.20;8.07;;;;;;;-5.94;100.00;100956.91;1661013;85;21046;-67
2021/12/24 08:57:38;;;;;;;16.27;7.80;;;;;;;-5.89;100.00;100949.11;1657854;84;21038;-68
2021/12/24 09:00:09;;;;;;;14.67;7.30;;;;;;;-5.80;100.00;100943.51;1661259;85;21526;-69
2021/12/24 09:02:38;;;;;;;15.60;8.10;;;;;;;-5.70;100.00;100928.34;1667164;85;21054;-69
2021/12/24 09:05:09;;;;;;;17.00;8.50;;;;;;;-5.74;100.00;100921.53;1652670;85;21558;-69
2021/12/24 09:07:36;;;;;;;15.87;8.67;;;;;;;-5.65;100.00;100913.03;1654068;84;21034;-69
2021/12/24 09:10:05;;;;;;;18.13;7.80;;;;;;;-5.66;100.00;100903.80;1662111;85;21557;-69
2021/12/24 09:12:32;;;;;;;17.27;8.10;;;;;;;-5.67;100.00;100894.17;1661072;84;21609;-66
2021/12/24 09:14:59;;;;;;;14.97;7.57;;;;;;;-5.56;100.00;100886.94;1642794;86;21006;-66
2021/12/24 09:17:27;;;;;;;14.90;7.70;;;;;;;-5.53;100.00;100871.14;1660110;86;21090;-66
2021/12/24 09:19:55;;;;;;;18.73;8.67;;;;;;;-5.52;100.00;100865.30;1657508;85;21114;-66
2021/12/24 09:22:29;;;;;;;18.60;8.87;;;;;;;-5.40;100.00;100861.03;1666196;86;21122;-69
2021/12/24 09:24:53;;;;;;;17.07;8.97;;;;;;;-5.40;100.00;100853.09;1679099;84;21054;-66
2021/12/24 09:27:19;;;;;;;18.20;8.53;;;;;;;-5.31;100.00;100843.69;1677815;85;21051;-66
2021/12/24 09:29:46;;;;;;;14.67;8.43;;;;;;;-5.29;100.00;100829.52;1684349;85;21035;-67
2021/12/24 09:32:14;;;;;;;17.30;8.90;;;;;;;-5.24;100.00;100826.33;1650219;86;21091;-69
2021/12/24 09:34:41;;;;;;;15.23;8.70;;;;;;;-5.12;100.00;100818.67;1658699;85;21098;-67
2021/12/24 09:37:08;;;;;;;18.33;8.97;;;;;;;-5.06;100.00;100808.37;1661526;85;21081;-67
2021/12/24 09:39:35;;;;;;;17.57;8.60;;;;;;;-5.02;100.00;100794.23;1654910;86;21137;-67
2021/12/24 09:42:03;;;;;;;15.23;8.50;;;;;;;-4.91;100.00;100791.97;1660892;84;21074;-67
2021/12/24 09:44:31;;;;;;;19.00;9.00;;;;;;;-4.83;100.00;100775.42;1652938;85;21046;-67
2021/12/24 09:46:58;;;;;;;14.77;8.17;;;;;;;-4.73;100.00;100770.20;1651553;84;21062;-69
2021/12/24 09:49:25;;;;;;;17.60;9.17;;;;;;;-4.66;100.00;100766.61;1664844;84;21558;-69
2021/12/24 09:51:52;;;;;;;16.87;8.47;;;;;;;-4.56;100.00;100758.87;1667160;85;21015;-69
2021/12/24 09:54:23;;;;;;;15.33;9.10;;;;;;;-4.59;100.00;100747.91;1660221;85;21031;-68
2021/12/24 09:56:52;;;;;;;12.20;7.50;;;;;;;-4.59;100.00;100735.34;1666894;85;21625;-68
2021/12/24 09:59:20;;;;;;;13.33;7.53;;;;;;;-4.48;100.00;100730.12;1658666;85;21051;-68
2021/12/24 10:02:00;;;;;;;13.83;7.73;;;;;;;-4.48;100.00;100729.73;1655747;85;21055;-68
2021/12/24 10:04:33;;;;;;;15.33;8.23;;;;;;;-4.40;100.00;100717.72;1651903;85;21557;-68
2021/12/24 10:07:06;;;;;;;18.27;9.00;;;;;;;-4.33;100.00;100705.31;1673708;85;21608;-68
2021/12/24 10:09:43;;;;;;;13.43;7.70;;;;;;;-4.19;100.00;100702.23;1662037;85;21054;-69
2021/12/24 10:12:18;;;;;;;17.50;8.50;;;;;;;-4.25;100.00;100695.41;1667479;84;21066;-68
2021/12/24 10:14:52;;;;;;;17.47;9.00;;;;;;;-4.23;100.00;100691.27;1661227;85;21089;-68
2021/12/24 10:17:35;;;;;;;15.20;8.27;;;;;;;-4.19;100.00;100685.90;1661300;85;21545;-68
2021/12/24 10:20:13;;;;;;;16.63;9.10;;;;;;;-4.15;100.00;100675.92;1651859;84;21102;-68
2021/12/24 10:22:52;;;;;;;17.70;9.90;;;;;;;-4.02;100.00;100659.38;1655942;85;21538;-69
2021/12/24 10:25:27;;;;;;;18.90;10.10;;;;;;;-4.07;100.00;100646.73;1649007;84;21131;-69
2021/12/24 10:27:55;;;;;;;17.27;9.50;;;;;;;-3.88;100.00;100641.60;1665265;85;21106;-69
2021/12/24 10:30:32;;;;;;;13.73;7.70;;;;;;;-3.77;100.00;100620.42;1660330;85;21054;-68
2021/12/24 10:33:09;;;;;;;15.60;8.03;;;;;;;-3.64;100.00;100618.52;1659233;85;21046;-68
2021/12/24 10:35:36;;;;;;;14.77;8.10;;;;;;;-3.49;100.00;100612.89;1669814;84;21506;-68
2021/12/24 10:38:16;;;;;;;16.23;8.50;;;;;;;-3.38;100.00;100597.94;1660888;85;21071;-69
2021/12/24 10:40:59;;;;;;;15.80;8.07;;;;;;;-3.20;100.00;100597.74;1658759;85;21060;-68
2021/12/24 10:43:34;;;;;;;14.23;7.80;;;;;;;-3.16;100.00;100576.81;1680009;85;21060;-68
2021/12/24 10:46:15;;;;;;;13.03;7.50;;;;;;;-3.14;100.00;100571.00;1685319;84;21096;-68
2021/12/24 10:49:07;;;;;;;14.57;7.77;;;;;;;-3.08;100.00;100558.48;1634836;87;21094;-68
2021/12/24 10:51:59;;;;;;;13.60;7.37;;;;;;;-3.10;100.00;100550.06;1678551;85;21087;-68
2021/12/24 10:54:26;;;;;;;15.77;8.57;;;;;;;-3.06;100.00;100532.07;1675637;85;21136;-68
2021/12/24 10:56:54;;;;;;;14.53;7.47;;;;;;;-3.00;100.00;100519.94;1681077;84;21065;-69
2021/12/24 10:59:49;;;;;;;14.70;8.10;;;;;;;-2.94;100.00;100514.58;1675461;84;21042;-68
2021/12/24 11:02:17;;;;;;;14.37;7.67;;;;;;;-2.97;100.00;100500.67;1635211;86;21088;-69
2021/12/24 11:04:45;;;;;;;14.17;7.70;;;;;;;-2.95;100.00;100500.28;1688500;85;21054;-68
2021/12/24 11:07:36;;;;;;;20.90;10.13;;;;;;;-2.89;100.00;100499.09;1671945;85;21081;-68
2021/12/24 11:10:15;;;;;;;26.27;11.03;;;;;;;-2.78;100.00;100489.53;1673193;85;21602;-68
2021/12/24 11:12:46;;;;;;;17.13;8.73;;;;;;;-2.72;100.00;100484.13;1677910;85;21033;-69
2021/12/24 11:15:27;;;;;;;14.77;7.80;;;;;;;-2.73;100.00;100483.72;1676841;85;21111;-68
2021/12/24 11:18:06;;;;;;;16.00;8.30;;;;;;;-2.67;100.00;100472.44;1680175;85;21015;-69
2021/12/24 11:20:34;;;;;;;13.97;7.43;;;;;;;-2.67;100.00;100457.31;1674942;85;21089;-69
2021/12/24 11:23:09;;;;;;;17.53;9.30;;;;;;;-2.63;100.00;100452.73;1673572;85;21102;-69
2021/12/24 11:25:41;;;;;;;14.70;7.97;;;;;;;-2.66;100.00;100443.04;1674180;85;21634;-68
2021/12/24 11:28:10;;;;;;;14.50;7.80;;;;;;;-2.67;100.00;100424.98;1674944;85;21562;-68
2021/12/24 11:30:46;;;;;;;12.20;6.77;;;;;;;-2.61;100.00;100425.03;1676566;85;21043;-68
2021/12/24 11:33:17;;;;;;;12.93;7.40;;;;;;;-2.62;100.00;100415.77;1676368;85;21038;-68
2021/12/24 11:35:47;;;;;;;12.93;7.00;;;;;;;-2.63;100.00;100406.12;1676473;85;22368;-69
2021/12/24 11:38:22;;;;;;;11.63;6.80;;;;;;;-2.63;100.00;100396.04;1674225;85;21077;-69
2021/12/24 11:40:53;;;;;;;11.80;7.00;;;;;;;-2.69;100.00;100387.17;1677460;85;21565;-68
2021/12/24 11:43:22;;;;;;;12.27;7.13;;;;;;;-2.74;100.00;100374.10;1674613;85;21035;-69
2021/12/24 11:45:49;;;;;;;12.50;6.83;;;;;;;-2.75;100.00;100358.15;1678230;85;21541;-69
2021/12/24 11:48:16;;;;;;;14.33;7.20;;;;;;;-2.76;100.00;100349.31;1677277;85;21127;-69
2021/12/24 11:50:44;;;;;;;12.90;7.27;;;;;;;-2.75;100.00;100339.25;1674964;85;21538;-69
2021/12/24 11:53:15;;;;;;;13.10;7.70;;;;;;;-2.73;100.00;100332.98;1680530;85;21057;-68
2021/12/24 11:55:48;;;;;;;14.57;7.60;;;;;;;-2.71;100.00;100319.97;1677606;85;21102;-69
2021/12/24 11:58:21;;;;;;;12.67;7.50;;;;;;;-2.70;100.00;100301.06;1670678;85;21031;-69
2021/12/24 12:00:53;;;;;;;11.35;6.83;;;;;;;-2.58;100.00;100313.33;1669114;85;21553;-68
2021/12/24 12:03:45;;;;;;;12.87;5.70;;;;;;;-2.54;100.00;100303.70;1678458;85;21514;-68
2021/12/24 12:06:26;;;;;;;12.53;7.23;;;;;;;-2.56;100.00;100298.64;1674745;85;21602;-69
2021/12/24 12:09:00;;;;;;;15.90;7.90;;;;;;;-2.50;100.00;100286.07;1682371;85;21042;-69
2021/12/24 12:11:32;;;;;;;13.70;7.77;;;;;;;-2.46;100.00;100271.39;1675678;85;21584;-68
2021/12/24 12:14:17;;;;;;;12.73;7.57;;;;;;;-2.55;100.00;100264.22;1678146;85;21030;-69
2021/12/24 12:16:54;;;;;;;14.47;7.87;;;;;;;-2.65;100.00;100255.34;1677740;85;21059;-69
2021/12/24 12:19:43;;;;;;;15.37;8.03;;;;;;;-2.64;100.00;100250.70;1678244;85;21089;-69
2021/12/24 12:25:10;;;;;;;16.33;8.20;;;;;;;-2.64;100.00;100219.21;1673350;85;21062;-69
2021/12/24 12:27:53;;;;;;;14.97;7.53;;;;;;;-2.65;100.00;100222.58;1673525;85;21349;-69
2021/12/24 12:30:47;;;;;;;13.77;7.50;;;;;;;-2.62;100.00;100201.20;1677070;85;21597;-68
2021/12/24 12:33:18;;;;;;;13.43;7.08;;;;;;;-2.52;100.00;100193.23;1674113;85;21047;-69
2021/12/24 12:35:58;;;;;;;15.00;8.10;;;;;;;-2.46;100.00;100192.42;1681893;84;21541;-69
2021/12/24 12:38:35;;;;;;;15.47;7.83;;;;;;;-2.37;100.00;100199.16;1678817;85;21098;-69
2021/12/24 12:41:26;;;;;;;13.63;7.63;;;;;;;-2.35;100.00;100193.32;1675732;85;21578;-69
2021/12/24 12:43:54;;;;;;;16.37;7.30;;;;;;;-2.25;100.00;100192.91;1672517;85;21031;-69
2021/12/24 12:46:31;;;;;;;12.50;7.43;;;;;;;-2.23;100.00;100184.53;1681028;85;21035;-69
2021/12/24 12:49:00;;;;;;;15.67;7.90;;;;;;;-2.17;100.00;100181.19;1669125;85;21106;-69
2021/12/24 12:51:57;;;;;;;12.30;6.87;;;;;;;-2.13;100.00;100180.36;1672598;85;21561;-69
2021/12/24 12:54:41;;;;;;;11.03;6.17;;;;;;;-2.09;100.00;100167.31;1674002;85;21045;-68
2021/12/24 12:57:16;;;;;;;12.25;7.30;;;;;;;-2.11;100.00;100166.08;1671519;85;21047;-69
2021/12/24 13:00:17;;;;;;;12.67;6.70;;;;;;;-2.10;100.00;100160.17;1653009;85;21565;-69
2021/12/24 13:05:46;;;;;;;13.77;7.80;;;;;;;-2.10;100.00;100148.83;1674661;85;21720;-69